createdAt,value
2018-05-03T00:00:47.404Z,12.10
2018-05-03T00:03:13.761Z,12.10
2018-05-03T00:05:40.241Z,12.10
2018-05-03T00:08:07.344Z,11.90
2018-05-03T00:10:33.694Z,11.90
2018-05-03T00:13:00.086Z,11.90
2018-05-03T00:15:27.160Z,11.80
2018-05-03T00:17:54.302Z,11.70
2018-05-03T00:20:20.790Z,11.60
2018-05-03T00:22:47.418Z,11.60
2018-05-03T00:25:19.874Z,11.60
2018-05-03T00:27:46.242Z,11.50
2018-05-03T00:30:13.343Z,11.40
2018-05-03T00:32:39.725Z,11.40
2018-05-03T00:35:06.107Z,11.40
2018-05-03T00:37:33.202Z,11.30
2018-05-03T00:39:59.545Z,11.20
2018-05-03T00:42:25.968Z,11.20
2018-05-03T00:44:52.365Z,11.20
2018-05-03T00:47:19.456Z,11.20
2018-05-03T00:49:45.874Z,11.20
2018-05-03T00:52:12.250Z,11.20
2018-05-03T00:54:46.615Z,11.20
2018-05-03T00:57:12.985Z,11.10
2018-05-03T00:59:39.337Z,11.20
2018-05-03T01:02:05.802Z,11.20
2018-05-03T01:04:32.328Z,11.20
2018-05-03T01:06:59.398Z,11.10
2018-05-03T01:09:26.578Z,11.10
2018-05-03T01:11:53.019Z,11.10
2018-05-03T01:14:19.413Z,11.00
2018-05-03T01:16:45.858Z,11.00
2018-05-03T01:19:12.245Z,11.30
2018-05-03T01:21:38.671Z,10.90
2018-05-03T01:24:05.059Z,10.80
2018-05-03T01:26:31.430Z,10.80
2018-05-03T01:28:57.762Z,10.70
2018-05-03T01:31:24.121Z,10.70
2018-05-03T01:33:50.497Z,10.60
2018-05-03T01:36:24.971Z,10.60
2018-05-03T01:38:51.377Z,10.60
2018-05-03T01:41:18.477Z,10.60
2018-05-03T01:43:44.858Z,10.60
2018-05-03T01:46:11.217Z,10.60
2018-05-03T01:48:37.531Z,10.50
2018-05-03T01:51:03.883Z,10.50
2018-05-03T01:53:30.235Z,10.40
2018-05-03T01:55:56.634Z,10.40
2018-05-03T01:58:22.978Z,10.40
2018-05-03T02:00:49.343Z,10.40
2018-05-03T02:03:16.495Z,10.30
2018-05-03T02:05:42.878Z,10.30
2018-05-03T02:08:09.965Z,10.20
2018-05-03T02:10:36.318Z,10.10
2018-05-03T02:13:02.717Z,10.10
2018-05-03T02:15:29.171Z,10.10
2018-05-03T02:17:56.579Z,10.10
2018-05-03T02:20:22.935Z,10.00
2018-05-03T02:22:49.342Z,10.10
2018-05-03T02:25:16.046Z,10.00
2018-05-03T02:27:42.970Z,9.90
2018-05-03T02:30:10.134Z,9.70
2018-05-03T02:32:36.523Z,9.70
2018-05-03T02:35:02.921Z,9.70
2018-05-03T02:37:29.291Z,9.50
2018-05-03T02:39:55.733Z,9.50
2018-05-03T02:42:23.002Z,9.30
2018-05-03T02:44:49.342Z,9.30
2018-05-03T02:47:15.681Z,9.20
2018-05-03T02:49:42.078Z,9.10
2018-05-03T02:52:08.477Z,9.10
2018-05-03T02:54:36.350Z,8.90
2018-05-03T02:57:15.278Z,8.90
2018-05-03T02:59:53.887Z,8.80
2018-05-03T03:02:26.467Z,8.70
2018-05-03T03:05:12.004Z,8.50
2018-05-03T03:11:22.103Z,8.40
2018-05-03T03:17:21.177Z,8.30
2018-05-03T03:20:19.890Z,8.30
2018-05-03T03:23:04.753Z,8.10
2018-05-03T03:29:04.036Z,7.90
2018-05-03T03:31:49.681Z,7.80
2018-05-03T03:34:26.845Z,7.80
2018-05-03T03:37:14.523Z,7.60
2018-05-03T03:39:53.141Z,7.50
2018-05-03T03:45:18.396Z,7.30
2018-05-03T03:47:44.873Z,7.20
2018-05-03T03:50:11.279Z,7.10
2018-05-03T03:52:37.708Z,7.10
2018-05-03T03:55:04.128Z,7.00
2018-05-03T03:57:30.559Z,6.90
2018-05-03T03:59:57.038Z,6.90
2018-05-03T04:02:23.433Z,6.90
2018-05-03T04:04:49.794Z,6.80
2018-05-03T04:07:16.244Z,6.80
2018-05-03T04:09:42.663Z,6.70
2018-05-03T04:12:09.220Z,6.70
2018-05-03T04:14:36.346Z,6.50
2018-05-03T04:17:02.748Z,6.50
2018-05-03T04:19:41.515Z,6.50
2018-05-03T04:22:20.522Z,6.40
2018-05-03T04:24:59.105Z,6.40
2018-05-03T04:27:25.509Z,6.30
2018-05-03T04:29:52.999Z,6.30
2018-05-03T04:32:19.379Z,6.30
2018-05-03T04:34:45.792Z,6.40
2018-05-03T04:37:12.186Z,6.40
2018-05-03T04:39:38.621Z,6.40
2018-05-03T04:42:05.008Z,6.40
2018-05-03T04:44:31.422Z,6.50
2018-05-03T04:46:57.878Z,6.60
2018-05-03T04:49:24.258Z,6.60
2018-05-03T04:51:50.739Z,6.70
2018-05-03T04:54:17.228Z,6.80
2018-05-03T04:56:43.564Z,6.80
2018-05-03T04:59:09.985Z,6.90
2018-05-03T05:01:36.410Z,7.00
2018-05-03T05:04:02.882Z,7.10
2018-05-03T05:06:29.291Z,7.20
2018-05-03T05:08:55.738Z,7.30
2018-05-03T05:11:22.134Z,7.50
2018-05-03T05:13:48.619Z,7.60
2018-05-03T05:16:15.045Z,7.70
2018-05-03T05:18:41.519Z,7.80
2018-05-03T05:21:07.902Z,7.90
2018-05-03T05:23:34.355Z,8.10
2018-05-03T05:26:00.782Z,8.20
2018-05-03T05:28:27.206Z,8.30
2018-05-03T05:30:54.339Z,8.60
2018-05-03T05:33:20.752Z,8.60
2018-05-03T05:35:47.238Z,8.80
2018-05-03T05:38:13.632Z,8.80
2018-05-03T05:40:39.998Z,8.90
2018-05-03T05:43:06.340Z,9.10
2018-05-03T05:45:33.515Z,9.40
2018-05-03T05:48:00.677Z,9.50
2018-05-03T05:50:27.093Z,9.50
2018-05-03T05:52:53.502Z,9.60
2018-05-03T05:55:19.894Z,9.70
2018-05-03T05:57:46.224Z,9.90
2018-05-03T06:00:14.128Z,10.10
2018-05-03T06:02:41.326Z,10.30
2018-05-03T06:05:08.454Z,10.40
2018-05-03T06:07:34.801Z,10.30
2018-05-03T06:10:01.434Z,10.50
2018-05-03T06:12:27.917Z,10.40
2018-05-03T06:14:54.287Z,10.40
2018-05-03T06:17:20.711Z,10.40
2018-05-03T06:19:47.083Z,10.60
2018-05-03T06:22:13.469Z,10.60
2018-05-03T06:24:39.877Z,10.60
2018-05-03T06:27:07.029Z,10.70
2018-05-03T06:29:33.390Z,10.70
2018-05-03T06:31:59.771Z,10.80
2018-05-03T06:34:26.200Z,10.80
2018-05-03T06:36:52.585Z,10.90
2018-05-03T06:39:18.981Z,11.00
2018-05-03T06:41:45.596Z,11.10
2018-05-03T06:44:12.722Z,11.20
2018-05-03T06:46:39.113Z,11.20
2018-05-03T06:49:06.250Z,11.40
2018-05-03T06:51:32.846Z,11.40
2018-05-03T06:53:59.189Z,11.40
2018-05-03T06:56:26.362Z,11.90
2018-05-03T06:58:52.763Z,11.90
2018-05-03T07:01:19.162Z,12.20
2018-05-03T07:03:45.624Z,12.70
2018-05-03T07:06:12.084Z,13.30
2018-05-03T07:08:38.466Z,13.80
2018-05-03T07:11:05.736Z,14.60
2018-05-03T07:13:32.161Z,14.90
2018-05-03T07:15:59.332Z,14.70
2018-05-03T07:18:25.772Z,14.30
2018-05-03T07:20:52.189Z,14.50
2018-05-03T07:23:18.578Z,14.60
2018-05-03T07:25:44.955Z,15.10
2018-05-03T07:28:11.375Z,15.70
2018-05-03T07:30:37.803Z,16.10
2018-05-03T07:33:04.254Z,16.30
2018-05-03T07:35:30.724Z,16.00
2018-05-03T07:37:57.184Z,15.80
2018-05-03T07:40:23.626Z,15.70
2018-05-03T07:42:50.778Z,16.00
2018-05-03T07:45:17.135Z,15.90
2018-05-03T07:47:46.405Z,16.50
2018-05-03T07:50:13.511Z,16.30
2018-05-03T07:52:39.947Z,16.30
2018-05-03T07:55:06.427Z,16.20
2018-05-03T07:57:32.798Z,16.50
2018-05-03T07:59:59.913Z,16.90
2018-05-03T08:02:26.366Z,16.90
2018-05-03T08:04:54.278Z,17.30
2018-05-03T08:07:27.539Z,17.80
2018-05-03T08:09:54.426Z,17.80
2018-05-03T08:12:21.674Z,18.00
2018-05-03T08:14:48.069Z,17.90
2018-05-03T08:17:14.498Z,17.90
2018-05-03T08:19:40.905Z,18.00
2018-05-03T08:22:07.571Z,17.40
2018-05-03T08:24:33.943Z,18.30
2018-05-03T08:27:00.344Z,18.60
2018-05-03T08:29:26.768Z,18.30
2018-05-03T08:31:53.610Z,18.20
2018-05-03T08:34:20.094Z,18.20
2018-05-03T08:36:46.593Z,18.30
2018-05-03T08:39:13.094Z,18.30
2018-05-03T08:41:40.273Z,18.10
2018-05-03T08:44:06.724Z,18.10
2018-05-03T08:46:33.239Z,18.20
2018-05-03T08:49:00.601Z,18.50
2018-05-03T08:51:27.323Z,18.50
2018-05-03T08:53:53.821Z,18.80
2018-05-03T08:56:27.100Z,18.90
2018-05-03T08:58:53.641Z,18.60
2018-05-03T09:01:22.624Z,18.20
2018-05-03T09:03:49.089Z,18.20
2018-05-03T09:06:15.492Z,17.80
2018-05-03T09:08:43.964Z,17.80
2018-05-03T09:11:12.406Z,17.90
2018-05-03T09:13:38.953Z,18.00
2018-05-03T09:16:05.430Z,18.50
2018-05-03T09:18:32.245Z,18.40
2018-05-03T09:21:03.254Z,18.40
2018-05-03T09:23:29.786Z,18.40
2018-05-03T09:25:56.234Z,18.10
2018-05-03T09:28:24.038Z,17.80
2018-05-03T09:30:50.548Z,17.90
2018-05-03T09:33:18.556Z,18.40
2018-05-03T09:35:45.059Z,18.30
2018-05-03T09:38:12.160Z,18.60
2018-05-03T09:40:38.698Z,19.10
2018-05-03T09:43:05.880Z,19.00
2018-05-03T09:45:33.464Z,19.00
2018-05-03T09:48:01.999Z,19.50
2018-05-03T09:50:29.213Z,20.20
2018-05-03T09:52:56.411Z,20.50
2018-05-03T09:55:23.605Z,20.30
2018-05-03T09:57:53.948Z,20.30
2018-05-03T10:00:20.402Z,20.20
2018-05-03T10:02:46.864Z,19.90
2018-05-03T10:05:13.249Z,20.00
2018-05-03T10:07:42.422Z,19.90
2018-05-03T10:10:09.210Z,19.90
2018-05-03T10:12:35.626Z,19.70
2018-05-03T10:15:02.066Z,19.40
2018-05-03T10:17:28.493Z,19.20
2018-05-03T10:19:56.307Z,19.30
2018-05-03T10:22:22.789Z,19.20
2018-05-03T10:24:49.183Z,19.20
2018-05-03T10:29:48.821Z,19.30
2018-05-03T10:32:15.257Z,19.60
2018-05-03T10:34:41.726Z,19.60
2018-05-03T10:37:08.632Z,19.50
2018-05-03T10:39:35.131Z,19.30
2018-05-03T10:42:01.789Z,19.10
2018-05-03T10:44:31.858Z,19.00
2018-05-03T10:47:00.188Z,19.20
2018-05-03T10:49:29.885Z,19.10
2018-05-03T10:51:57.042Z,19.30
2018-05-03T10:54:23.423Z,19.30
2018-05-03T10:56:49.888Z,19.20
2018-05-03T10:59:17.058Z,18.90
2018-05-03T11:01:44.256Z,18.90
2018-05-03T11:04:10.695Z,18.90
2018-05-03T11:06:39.171Z,18.60
2018-05-03T11:09:06.312Z,18.70
2018-05-03T11:11:32.850Z,18.70
2018-05-03T11:13:59.263Z,18.90
2018-05-03T11:16:29.534Z,18.00
2018-05-03T11:18:58.124Z,19.20
2018-05-03T11:21:24.509Z,19.20
2018-05-03T11:23:51.156Z,19.60
2018-05-03T11:26:17.604Z,19.70
2018-05-03T11:28:44.766Z,19.20
2018-05-03T11:31:11.188Z,19.20
2018-05-03T11:33:38.444Z,17.90
2018-05-03T11:36:05.010Z,17.80
2018-05-03T11:38:31.442Z,17.80
2018-05-03T11:40:57.911Z,17.80
2018-05-03T11:43:24.396Z,17.90
2018-05-03T11:45:51.593Z,18.40
2018-05-03T11:48:18.062Z,18.30
2018-05-03T11:50:45.245Z,19.70
2018-05-03T11:53:11.720Z,19.60
2018-05-03T11:55:38.142Z,20.00
2018-05-03T11:58:04.753Z,20.20
2018-05-03T12:00:31.243Z,20.50
2018-05-03T12:02:58.435Z,19.80
2018-05-03T12:05:24.837Z,19.60
2018-05-03T12:07:51.406Z,19.00
2018-05-03T12:10:17.905Z,18.60
2018-05-03T12:12:45.156Z,18.70
2018-05-03T12:15:11.619Z,18.70
2018-05-03T12:17:38.781Z,18.70
2018-05-03T12:20:06.073Z,18.90
2018-05-03T12:22:32.596Z,18.80
2018-05-03T12:24:59.071Z,19.00
2018-05-03T12:27:26.258Z,19.60
2018-05-03T12:29:52.860Z,19.60
2018-05-03T12:32:19.282Z,19.90
2018-05-03T12:34:46.649Z,20.20
2018-05-03T12:37:13.016Z,20.20
2018-05-03T12:39:40.202Z,20.20
2018-05-03T12:42:06.637Z,20.00
2018-05-03T12:44:33.106Z,19.80
2018-05-03T12:47:01.958Z,19.90
2018-05-03T12:49:29.110Z,20.10
2018-05-03T12:51:55.582Z,19.80
2018-05-03T12:54:22.005Z,20.30
2018-05-03T12:56:48.414Z,20.60
2018-05-03T12:59:16.228Z,21.40
2018-05-03T13:01:45.022Z,21.30
2018-05-03T13:04:11.429Z,21.20
2018-05-03T13:06:37.853Z,20.90
2018-05-03T13:09:05.103Z,21.10
2018-05-03T13:11:31.579Z,20.80
2018-05-03T13:13:58.044Z,20.90
2018-05-03T13:16:24.715Z,21.10
2018-05-03T13:18:51.082Z,21.10
2018-05-03T13:21:19.456Z,20.90
2018-05-03T13:23:45.882Z,20.90
2018-05-03T13:26:12.266Z,20.60
2018-05-03T13:28:38.836Z,20.50
2018-05-03T13:31:05.286Z,20.40
2018-05-03T13:33:31.694Z,20.50
2018-05-03T13:35:58.117Z,20.50
2018-05-03T13:38:24.487Z,20.30
2018-05-03T13:40:50.914Z,20.20
2018-05-03T13:43:18.220Z,20.40
2018-05-03T13:45:44.559Z,20.40
2018-05-03T13:48:11.742Z,21.20
2018-05-03T13:50:38.137Z,21.20
2018-05-03T13:53:05.391Z,23.10
2018-05-03T13:55:31.890Z,23.00
2018-05-03T13:57:58.333Z,23.50
2018-05-03T14:00:24.735Z,23.80
2018-05-03T14:02:51.965Z,24.50
2018-05-03T14:05:18.386Z,24.60
2018-05-03T14:07:44.797Z,24.90
2018-05-03T14:10:11.936Z,24.90
2018-05-03T14:12:38.388Z,24.90
2018-05-03T14:15:04.783Z,24.80
2018-05-03T14:17:31.205Z,25.10
2018-05-03T14:19:57.637Z,25.40
2018-05-03T14:22:25.025Z,24.10
2018-05-03T14:24:51.412Z,24.10
2018-05-03T14:27:17.901Z,22.60
2018-05-03T14:29:44.206Z,21.30
2018-05-03T14:32:10.591Z,20.20
2018-05-03T14:34:37.753Z,19.50
2018-05-03T14:37:04.194Z,19.50
2018-05-03T14:39:31.470Z,21.00
2018-05-03T14:41:58.619Z,22.00
2018-05-03T14:44:25.010Z,21.80
2018-05-03T14:46:51.394Z,23.40
2018-05-03T14:49:18.541Z,24.40
2018-05-03T14:51:46.354Z,24.30
2018-05-03T14:54:12.728Z,24.30
2018-05-03T14:56:40.027Z,23.80
2018-05-03T14:59:07.270Z,23.70
2018-05-03T15:01:33.730Z,23.60
2018-05-03T15:04:00.640Z,23.60
2018-05-03T15:06:27.837Z,23.30
2018-05-03T15:08:54.322Z,23.30
2018-05-03T15:11:20.887Z,23.10
2018-05-03T15:13:50.252Z,22.20
2018-05-03T15:16:17.492Z,22.60
2018-05-03T15:18:43.936Z,22.60
2018-05-03T15:21:10.380Z,23.20
2018-05-03T15:23:36.792Z,23.30
2018-05-03T15:26:03.911Z,23.40
2018-05-03T15:28:31.137Z,23.50
2018-05-03T15:30:58.342Z,23.60
2018-05-03T15:33:24.750Z,23.60
2018-05-03T15:35:51.935Z,23.80
2018-05-03T15:38:18.396Z,23.80
2018-05-03T15:40:44.823Z,22.80
2018-05-03T15:43:11.205Z,22.30
2018-05-03T15:45:37.751Z,22.90
2018-05-03T15:48:04.643Z,23.80
2018-05-03T15:50:31.806Z,23.30
2018-05-03T15:52:58.238Z,23.30
2018-05-03T15:55:24.662Z,22.80
2018-05-03T15:57:51.137Z,22.20
2018-05-03T16:00:18.260Z,21.60
2018-05-03T16:02:44.710Z,21.60
2018-05-03T16:05:11.127Z,22.00
2018-05-03T16:07:39.019Z,21.30
2018-05-03T16:10:05.452Z,21.30
2018-05-03T16:12:31.865Z,21.70
2018-05-03T16:14:58.328Z,22.20
2018-05-03T16:17:25.537Z,22.70
2018-05-03T16:19:51.925Z,22.60
2018-05-03T16:22:20.270Z,22.20
2018-05-03T16:24:46.647Z,22.30
2018-05-03T16:27:13.185Z,22.20
2018-05-03T16:29:39.642Z,21.50
2018-05-03T16:32:06.059Z,21.60
2018-05-03T16:34:33.248Z,22.40
2018-05-03T16:36:59.619Z,22.30
2018-05-03T16:39:26.086Z,22.40
2018-05-03T16:41:52.519Z,22.40
2018-05-03T16:44:20.854Z,22.50
2018-05-03T16:46:48.007Z,23.10
2018-05-03T16:49:14.556Z,23.10
2018-05-03T16:51:41.682Z,23.60
2018-05-03T16:54:08.197Z,23.60
2018-05-03T16:56:35.361Z,22.00
2018-05-03T16:59:01.774Z,22.00
2018-05-03T17:01:28.907Z,21.00
2018-05-03T17:03:55.400Z,20.70
2018-05-03T17:06:21.836Z,20.80
2018-05-03T17:08:48.185Z,20.60
2018-05-03T17:11:14.543Z,19.60
2018-05-03T17:13:40.921Z,19.60
2018-05-03T17:16:07.286Z,20.10
2018-05-03T17:18:33.760Z,20.80
2018-05-03T17:21:00.263Z,21.50
2018-05-03T17:23:26.683Z,21.70
2018-05-03T17:25:53.038Z,21.30
2018-05-03T17:28:20.201Z,20.50
2018-05-03T17:30:46.561Z,20.10
2018-05-03T17:33:13.092Z,20.90
2018-05-03T17:35:39.654Z,21.20
2018-05-03T17:38:06.070Z,21.70
2018-05-03T17:40:33.082Z,22.00
2018-05-03T17:43:00.243Z,21.90
2018-05-03T17:45:28.164Z,21.70
2018-05-03T17:47:55.261Z,21.60
2018-05-03T17:50:21.793Z,21.60
2018-05-03T17:52:48.926Z,21.20
2018-05-03T17:55:15.355Z,21.10
2018-05-03T17:57:41.761Z,20.70
2018-05-03T18:00:08.163Z,20.50
2018-05-03T18:02:34.702Z,19.90
2018-05-03T18:05:01.786Z,18.60
2018-05-03T18:07:28.225Z,18.60
2018-05-03T18:09:54.585Z,18.00
2018-05-03T18:12:21.003Z,17.30
2018-05-03T18:14:47.416Z,16.60
2018-05-03T18:17:13.835Z,15.90
2018-05-03T18:19:40.324Z,15.30
2018-05-03T18:22:06.717Z,14.90
2018-05-03T18:24:33.080Z,14.70
2018-05-03T18:26:59.949Z,13.90
2018-05-03T18:29:27.109Z,13.90
2018-05-03T18:31:53.606Z,13.90
2018-05-03T18:34:20.060Z,13.70
2018-05-03T18:36:46.394Z,13.60
2018-05-03T18:39:13.502Z,13.20
2018-05-03T18:41:39.887Z,13.20
2018-05-03T18:44:06.419Z,13.10
2018-05-03T18:46:32.828Z,12.90
2018-05-03T18:48:59.834Z,12.70
2018-05-03T18:51:26.235Z,12.60
2018-05-03T18:53:52.602Z,12.50
2018-05-03T18:56:19.208Z,12.40
2018-05-03T18:58:45.616Z,12.30
2018-05-03T19:01:12.063Z,12.20
2018-05-03T19:03:38.463Z,12.10
2018-05-03T19:06:06.348Z,12.00
2018-05-03T19:08:32.701Z,11.90
2018-05-03T19:10:59.101Z,11.70
2018-05-03T19:13:26.962Z,11.50
2018-05-03T19:15:53.351Z,11.50
2018-05-03T19:18:21.750Z,11.50
2018-05-03T19:20:49.740Z,11.30
2018-05-03T19:23:16.193Z,11.20
2018-05-03T19:25:42.557Z,11.10
2018-05-03T19:28:08.973Z,11.10
2018-05-03T19:30:35.462Z,10.90
2018-05-03T19:33:05.258Z,10.80
2018-05-03T19:35:32.496Z,10.60
2018-05-03T19:37:59.622Z,10.50
2018-05-03T19:40:25.978Z,10.40
2018-05-03T19:42:53.062Z,10.30
2018-05-03T19:45:19.411Z,10.30
2018-05-03T19:47:46.526Z,10.30
2018-05-03T19:50:12.879Z,10.30
2018-05-03T19:52:39.833Z,10.30
2018-05-03T19:55:06.446Z,10.30
2018-05-03T19:57:33.584Z,10.30
2018-05-03T20:00:00.026Z,10.20
2018-05-03T20:02:26.497Z,10.30
2018-05-03T20:04:52.878Z,10.30
2018-05-03T20:07:19.193Z,10.30
2018-05-03T20:09:45.562Z,10.30
2018-05-03T20:12:11.989Z,10.30
2018-05-03T20:14:38.333Z,10.40
2018-05-03T20:17:05.519Z,10.30
2018-05-03T20:19:32.336Z,10.30
2018-05-03T20:21:59.463Z,10.30
2018-05-03T20:24:25.884Z,10.30
2018-05-03T20:26:52.281Z,10.30
2018-05-03T20:29:18.622Z,10.30
2018-05-03T20:31:44.990Z,10.30
2018-05-03T20:34:11.323Z,10.20
2018-05-03T20:36:37.738Z,10.10
2018-05-03T20:39:04.186Z,9.90
2018-05-03T20:41:30.568Z,9.90
2018-05-03T20:43:56.975Z,9.70
2018-05-03T20:46:23.356Z,9.50
2018-05-03T20:48:49.682Z,9.30
2018-05-03T20:51:16.798Z,9.10
2018-05-03T20:53:43.226Z,9.10
2018-05-03T20:56:10.623Z,9.10
2018-05-03T20:58:37.759Z,9.00
2018-05-03T21:01:04.263Z,9.00
2018-05-03T21:03:31.463Z,9.00
2018-05-03T21:05:57.895Z,8.90
2018-05-03T21:08:24.299Z,8.90
2018-05-03T21:10:50.690Z,8.40
2018-05-03T21:13:17.068Z,8.90
2018-05-03T21:15:43.471Z,8.80
2018-05-03T21:18:09.870Z,8.80
2018-05-03T21:20:36.202Z,8.80
2018-05-03T21:23:02.549Z,8.90
2018-05-03T21:25:29.098Z,8.90
2018-05-03T21:27:55.512Z,9.00
2018-05-03T21:30:21.875Z,9.00
2018-05-03T21:32:48.281Z,9.00
2018-05-03T21:35:14.622Z,9.00
2018-05-03T21:37:41.722Z,8.90
2018-05-03T21:40:08.221Z,8.90
2018-05-03T21:42:35.338Z,8.90
2018-05-03T21:45:01.778Z,8.80
2018-05-03T21:47:28.162Z,8.80
2018-05-03T21:49:54.490Z,8.80
2018-05-03T21:52:20.853Z,8.70
2018-05-03T21:54:47.940Z,8.50
2018-05-03T21:57:15.031Z,8.40
2018-05-03T21:59:41.363Z,8.30
2018-05-03T22:02:07.706Z,8.30
2018-05-03T22:04:34.065Z,8.20
2018-05-03T22:07:00.413Z,8.20
2018-05-03T22:09:26.821Z,8.10
2018-05-03T22:11:53.889Z,7.90
2018-05-03T22:14:20.206Z,7.90
2018-05-03T22:16:47.283Z,7.80
2018-05-03T22:19:14.355Z,7.70
2018-05-03T22:21:40.735Z,7.70
2018-05-03T22:24:08.650Z,7.40
2018-05-03T22:26:35.096Z,7.50
2018-05-03T22:29:02.156Z,7.30
2018-05-03T22:31:28.540Z,7.20
2018-05-03T22:33:54.877Z,7.20
2018-05-03T22:36:21.211Z,7.10
2018-05-03T22:38:47.618Z,7.00
2018-05-03T22:41:13.975Z,6.90
2018-05-03T22:43:41.071Z,6.80
2018-05-03T22:46:07.381Z,6.80
2018-05-03T22:48:33.724Z,6.70
2018-05-03T22:51:00.779Z,6.70
2018-05-03T22:53:27.155Z,6.60
2018-05-03T22:55:53.470Z,6.60
2018-05-03T22:58:19.818Z,6.10
2018-05-03T23:00:46.286Z,6.50
2018-05-03T23:03:12.750Z,6.50
2018-05-03T23:05:39.095Z,6.40
2018-05-03T23:08:05.556Z,6.40
2018-05-03T23:10:33.357Z,6.20
2018-05-03T23:13:00.454Z,6.20
2018-05-03T23:15:26.787Z,6.20
2018-05-03T23:17:53.159Z,6.20
2018-05-03T23:20:19.468Z,6.10
2018-05-03T23:22:46.027Z,6.10
2018-05-03T23:25:12.370Z,6.00
2018-05-03T23:27:38.715Z,5.90
2018-05-03T23:30:05.406Z,5.90
2018-05-03T23:32:31.817Z,5.90
2018-05-03T23:34:58.197Z,5.80
2018-05-03T23:37:24.539Z,5.50
2018-05-03T23:39:52.026Z,5.70
2018-05-03T23:42:18.425Z,5.60
2018-05-03T23:44:44.786Z,5.70
2018-05-03T23:47:11.093Z,5.60
2018-05-03T23:49:37.474Z,5.70
2018-05-03T23:52:03.877Z,5.60
2018-05-03T23:54:31.080Z,6.00
2018-05-03T23:56:57.398Z,5.50
2018-05-03T23:59:23.753Z,5.50
